createdAt,value
2018-02-23T00:02:31.260Z,102037.84
2018-02-23T00:05:06.268Z,102030.44
2018-02-23T00:07:47.242Z,102034.52
2018-02-23T00:10:22.174Z,102032.41
2018-02-23T00:12:57.748Z,102033.77
2018-02-23T00:15:32.111Z,102028.61
2018-02-23T00:18:06.812Z,102029.96
2018-02-23T00:20:41.831Z,102032.42
2018-02-23T00:23:16.967Z,102034.57
2018-02-23T00:25:51.998Z,102030.08
2018-02-23T00:28:26.342Z,102029.77
2018-02-23T00:31:01.871Z,102028.44
2018-02-23T00:33:36.988Z,102023.52
2018-02-23T00:36:12.299Z,102031.45
2018-02-23T00:38:47.355Z,102034.57
2018-02-23T00:41:22.242Z,102033.24
2018-02-23T00:43:57.435Z,102032.41
2018-02-23T00:46:32.912Z,102032.86
2018-02-23T00:49:08.288Z,102034.28
2018-02-23T00:51:43.303Z,102035.15
2018-02-23T00:54:18.295Z,102032.38
2018-02-23T00:56:53.367Z,102042.40
2018-02-23T00:59:28.299Z,102040.20
2018-02-23T01:02:03.541Z,102038.44
2018-02-23T01:04:39.068Z,102033.53
2018-02-23T01:07:14.227Z,102034.33
2018-02-23T01:09:49.154Z,102032.08
2018-02-23T01:12:23.504Z,102025.50
2018-02-23T01:14:58.152Z,102030.84
2018-02-23T01:17:33.132Z,102027.78
2018-02-23T01:20:08.404Z,102021.53
2018-02-23T01:22:42.844Z,102025.63
2018-02-23T01:25:17.555Z,102020.42
2018-02-23T01:27:52.591Z,102027.91
2018-02-23T01:30:28.191Z,102027.33
2018-02-23T01:33:02.626Z,102023.77
2018-02-23T01:35:38.027Z,102022.06
2018-02-23T01:38:12.559Z,102021.73
2018-02-23T01:40:47.131Z,102017.80
2018-02-23T01:43:22.135Z,102015.77
2018-02-23T01:45:56.587Z,102018.09
2018-02-23T01:48:31.547Z,102016.83
2018-02-23T01:51:06.499Z,102014.61
2018-02-23T01:53:41.132Z,102013.17
2018-02-23T01:56:16.218Z,102020.81
2018-02-23T01:58:51.195Z,102010.34
2018-02-23T02:01:26.225Z,102006.81
2018-02-23T02:04:01.015Z,102013.41
2018-02-23T02:06:36.027Z,102009.45
2018-02-23T02:09:11.232Z,101997.97
2018-02-23T02:11:46.269Z,102005.09
2018-02-23T02:14:20.683Z,102003.88
2018-02-23T02:16:55.527Z,101993.30
2018-02-23T02:19:30.743Z,101998.58
2018-02-23T02:22:06.515Z,101995.52
2018-02-23T02:24:41.282Z,101996.71
2018-02-23T02:27:16.099Z,101994.25
2018-02-23T02:29:50.660Z,101982.17
2018-02-23T02:32:25.606Z,101983.98
2018-02-23T02:35:00.347Z,101983.59
2018-02-23T02:37:35.429Z,101990.63
2018-02-23T02:40:10.791Z,101983.56
2018-02-23T02:42:45.349Z,101982.05
2018-02-23T02:45:20.188Z,101989.45
2018-02-23T02:47:55.287Z,101989.96
2018-02-23T02:50:30.585Z,101991.80
2018-02-23T02:53:06.572Z,101989.12
2018-02-23T02:55:41.374Z,101990.11
2018-02-23T02:58:16.321Z,101992.42
2018-02-23T03:00:51.496Z,101992.91
2018-02-23T03:03:26.218Z,102002.86
2018-02-23T03:06:01.264Z,101996.89
2018-02-23T03:08:36.148Z,101992.72
2018-02-23T03:11:10.863Z,101997.52
2018-02-23T03:13:45.242Z,101994.52
2018-02-23T03:16:20.660Z,101995.92
2018-02-23T03:18:56.353Z,101991.81
2018-02-23T03:21:31.724Z,101987.83
2018-02-23T03:24:06.831Z,101996.98
2018-02-23T03:26:42.406Z,101998.59
2018-02-23T03:29:17.603Z,101988.77
2018-02-23T03:31:52.716Z,101998.44
2018-02-23T03:34:27.436Z,101997.86
2018-02-23T03:37:02.720Z,101997.52
2018-02-23T03:39:37.778Z,102005.41
2018-02-23T03:42:13.267Z,102002.02
2018-02-23T03:44:48.580Z,102003.03
2018-02-23T03:47:23.652Z,102006.61
2018-02-23T03:50:01.874Z,102004.35
2018-02-23T03:52:37.430Z,102009.04
2018-02-23T03:55:12.691Z,102012.77
2018-02-23T03:57:47.317Z,102013.71
2018-02-23T04:00:22.616Z,102015.94
2018-02-23T04:02:57.684Z,102011.47
2018-02-23T04:05:32.463Z,102008.20
2018-02-23T04:08:07.748Z,102009.23
2018-02-23T04:10:42.378Z,102005.96
2018-02-23T04:13:17.330Z,102014.23
2018-02-23T04:15:52.556Z,102012.98
2018-02-23T04:18:27.829Z,102010.25
2018-02-23T04:21:02.548Z,102016.55
2018-02-23T04:23:37.422Z,102023.20
2018-02-23T04:26:12.372Z,102014.44
2018-02-23T04:28:47.491Z,102017.13
2018-02-23T04:31:22.547Z,102022.77
2018-02-23T04:33:57.459Z,102021.88
2018-02-23T04:36:32.719Z,102024.17
2018-02-23T04:39:07.904Z,102027.72
2018-02-23T04:41:43.487Z,102021.89
2018-02-23T04:44:18.903Z,102023.02
2018-02-23T04:46:54.391Z,102028.33
2018-02-23T04:49:29.480Z,102028.39
2018-02-23T04:52:04.579Z,102030.37
2018-02-23T04:54:39.643Z,102030.44
2018-02-23T04:57:14.119Z,102037.20
2018-02-23T04:59:48.780Z,102035.50
2018-02-23T05:02:24.012Z,102037.28
2018-02-23T05:04:59.176Z,102033.80
2018-02-23T05:07:34.520Z,102032.86
2018-02-23T05:10:08.598Z,102037.96
2018-02-23T05:12:42.943Z,102039.31
2018-02-23T05:15:18.179Z,102040.33
2018-02-23T05:17:53.545Z,102033.22
2018-02-23T05:20:28.685Z,102035.80
2018-02-23T05:23:03.801Z,102044.24
2018-02-23T05:25:39.090Z,102040.28
2018-02-23T05:28:14.700Z,102038.22
2018-02-23T05:30:49.912Z,102047.66
2018-02-23T05:33:24.868Z,102046.81
2018-02-23T05:35:59.776Z,102046.75
2018-02-23T05:38:34.807Z,102048.98
2018-02-23T05:41:10.053Z,102053.77
2018-02-23T05:43:45.627Z,102045.80
2018-02-23T05:46:21.040Z,102044.47
2018-02-23T05:48:56.075Z,102054.98
2018-02-23T05:51:31.236Z,102051.34
2018-02-23T05:54:07.088Z,102059.34
2018-02-23T05:56:41.744Z,102055.98
2018-02-23T05:59:16.376Z,102053.73
2018-02-23T06:01:50.878Z,102057.66
2018-02-23T06:04:25.663Z,102059.94
2018-02-23T06:07:00.840Z,102068.91
2018-02-23T06:09:35.319Z,102066.00
2018-02-23T06:12:10.802Z,102063.89
2018-02-23T06:14:45.784Z,102067.92
2018-02-23T06:17:26.568Z,102074.10
2018-02-23T06:20:06.315Z,102075.34
2018-02-23T06:22:41.652Z,102075.36
2018-02-23T06:25:17.174Z,102076.26
2018-02-23T06:27:52.348Z,102078.89
2018-02-23T06:30:27.471Z,102075.89
2018-02-23T06:33:02.224Z,102081.20
2018-02-23T06:35:37.254Z,102078.16
2018-02-23T06:38:12.304Z,102083.02
2018-02-23T06:40:47.152Z,102082.24
2018-02-23T06:43:21.983Z,102089.31
2018-02-23T06:45:57.444Z,102089.77
2018-02-23T06:48:32.847Z,102085.84
2018-02-23T06:51:08.299Z,102090.38
2018-02-23T06:53:43.256Z,102096.53
2018-02-23T06:56:19.124Z,102099.39
2018-02-23T06:58:53.995Z,102098.36
2018-02-23T07:01:29.043Z,102093.42
2018-02-23T07:04:03.971Z,102098.11
2018-02-23T07:06:38.483Z,102094.86
2018-02-23T07:09:13.820Z,102100.34
2018-02-23T07:11:49.088Z,102102.17
2018-02-23T07:14:23.977Z,102108.02
2018-02-23T07:16:58.903Z,102104.73
2018-02-23T07:19:34.085Z,102112.54
2018-02-23T07:22:08.936Z,102113.44
2018-02-23T07:24:43.331Z,102100.34
2018-02-23T07:27:18.291Z,102106.75
2018-02-23T07:29:53.261Z,102099.62
2018-02-23T07:32:27.756Z,102104.59
2018-02-23T07:35:02.333Z,102095.40
2018-02-23T07:37:37.314Z,102095.36
2018-02-23T07:40:12.278Z,102106.10
2018-02-23T07:42:47.324Z,102107.62
2018-02-23T07:45:21.927Z,102110.80
2018-02-23T07:47:56.784Z,102107.53
2018-02-23T07:50:31.760Z,102110.80
2018-02-23T07:53:07.456Z,102114.34
2018-02-23T07:55:42.219Z,102112.04
2018-02-23T07:58:16.874Z,102119.48
2018-02-23T08:00:52.152Z,102113.50
2018-02-23T08:03:27.443Z,102118.59
2018-02-23T08:06:01.884Z,102125.89
2018-02-23T08:08:37.127Z,102133.26
2018-02-23T08:11:11.611Z,102128.89
2018-02-23T08:13:46.215Z,102125.81
2018-02-23T08:16:21.495Z,102135.95
2018-02-23T08:18:57.031Z,102136.32
2018-02-23T08:21:31.947Z,102141.91
2018-02-23T08:24:07.515Z,102143.62
2018-02-23T08:26:42.348Z,102145.81
2018-02-23T08:29:17.079Z,102137.39
2018-02-23T08:31:52.189Z,102146.25
2018-02-23T08:34:27.459Z,102144.90
2018-02-23T08:37:02.135Z,102148.47
2018-02-23T08:39:37.303Z,102153.64
2018-02-23T08:42:11.655Z,102129.25
2018-02-23T08:44:46.696Z,102145.28
2018-02-23T08:47:21.256Z,102149.89
2018-02-23T08:49:55.591Z,102149.03
2018-02-23T08:52:30.175Z,102149.39
2018-02-23T08:55:05.465Z,102148.67
2018-02-23T08:57:40.252Z,102149.51
2018-02-23T09:00:19.451Z,102152.42
2018-02-23T09:02:54.263Z,102154.56
2018-02-23T09:05:29.415Z,102158.18
2018-02-23T09:08:04.351Z,102152.81
2018-02-23T09:10:39.467Z,102153.77
2018-02-23T09:13:15.396Z,102151.59
2018-02-23T09:15:50.287Z,102150.64
2018-02-23T09:18:25.237Z,102149.88
2018-02-23T09:21:00.367Z,102154.82
2018-02-23T09:23:35.523Z,102159.45
2018-02-23T09:26:10.272Z,102151.50
2018-02-23T09:28:45.403Z,102151.64
2018-02-23T09:31:20.586Z,102157.41
2018-02-23T09:34:06.651Z,102144.36
2018-02-23T09:36:42.228Z,102143.80
2018-02-23T09:39:17.390Z,102142.72
2018-02-23T09:41:52.518Z,102145.39
2018-02-23T09:44:27.659Z,102151.12
2018-02-23T09:47:02.264Z,102151.96
2018-02-23T09:49:37.243Z,102153.87
2018-02-23T09:52:12.267Z,102146.88
2018-02-23T09:54:47.407Z,102146.77
2018-02-23T09:57:22.547Z,102151.67
2018-02-23T09:59:56.881Z,102140.73
2018-02-23T10:02:31.447Z,102142.48
2018-02-23T10:05:06.124Z,102138.72
2018-02-23T10:07:41.296Z,102135.53
2018-02-23T10:10:16.730Z,102127.14
2018-02-23T10:12:51.912Z,102130.31
2018-02-23T10:15:27.331Z,102125.09
2018-02-23T10:18:02.291Z,102129.58
2018-02-23T10:20:36.782Z,102126.31
2018-02-23T10:23:12.248Z,102120.70
2018-02-23T10:25:47.311Z,102119.80
2018-02-23T10:28:22.659Z,102125.95
2018-02-23T10:30:57.672Z,102125.95
2018-02-23T10:33:32.871Z,102114.01
2018-02-23T10:36:08.172Z,102118.37
2018-02-23T10:38:43.124Z,102114.31
2018-02-23T10:41:18.179Z,102116.06
2018-02-23T10:43:52.367Z,102124.94
2018-02-23T10:46:27.163Z,102116.09
2018-02-23T10:49:02.327Z,102114.94
2018-02-23T10:51:36.784Z,102114.57
2018-02-23T10:54:11.433Z,102112.39
2018-02-23T10:56:45.779Z,102107.09
2018-02-23T10:59:20.739Z,102106.42
2018-02-23T11:01:56.111Z,102097.05
2018-02-23T11:04:31.188Z,102101.91
2018-02-23T11:07:07.492Z,102104.76
2018-02-23T11:09:42.480Z,102106.67
2018-02-23T11:12:17.293Z,102102.49
2018-02-23T11:14:52.517Z,102099.64
2018-02-23T11:17:27.520Z,102096.09
2018-02-23T11:20:02.612Z,102087.70
2018-02-23T11:22:37.483Z,102102.01
2018-02-23T11:25:11.847Z,102106.97
2018-02-23T11:27:46.948Z,102094.56
2018-02-23T11:30:21.927Z,102099.33
2018-02-23T11:32:56.592Z,102108.96
2018-02-23T11:35:32.551Z,102108.99
2018-02-23T11:38:07.950Z,102090.80
2018-02-23T11:40:42.929Z,102090.14
2018-02-23T11:43:18.216Z,102084.25
2018-02-23T11:45:53.060Z,102090.52
2018-02-23T11:48:27.745Z,102085.95
2018-02-23T11:51:02.907Z,102089.34
2018-02-23T11:53:38.507Z,102082.89
2018-02-23T11:56:13.431Z,102088.94
2018-02-23T11:58:48.582Z,102084.20
2018-02-23T12:01:23.585Z,102078.02
2018-02-23T12:03:58.675Z,102086.28
2018-02-23T12:06:33.660Z,102088.27
2018-02-23T12:09:08.593Z,102082.83
2018-02-23T12:11:43.591Z,102080.95
2018-02-23T12:14:18.659Z,102087.48
2018-02-23T12:16:53.607Z,102086.14
2018-02-23T12:19:27.961Z,102089.62
2018-02-23T12:22:02.688Z,102096.11
2018-02-23T12:24:37.931Z,102091.75
2018-02-23T12:27:12.858Z,102094.48
2018-02-23T12:29:47.652Z,102091.31
2018-02-23T12:32:22.863Z,102089.62
2018-02-23T12:34:57.819Z,102084.69
2018-02-23T12:37:32.652Z,102083.08
2018-02-23T12:40:08.079Z,102075.20
2018-02-23T12:42:42.828Z,102077.70
2018-02-23T12:45:18.143Z,102076.36
2018-02-23T12:47:53.475Z,102077.52
2018-02-23T12:50:28.656Z,102074.27
2018-02-23T12:53:03.919Z,102080.30
2018-02-23T12:55:38.977Z,102074.08
2018-02-23T12:58:14.645Z,102064.51
2018-02-23T13:00:49.688Z,102076.80
2018-02-23T13:03:24.854Z,102076.40
2018-02-23T13:05:59.191Z,102073.71
2018-02-23T13:08:33.641Z,102078.78
2018-02-23T13:11:08.092Z,102073.99
2018-02-23T13:13:42.691Z,102069.00
2018-02-23T13:16:29.718Z,102070.19
2018-02-23T13:19:04.131Z,102068.28
2018-02-23T13:21:38.751Z,102072.25
2018-02-23T13:24:13.767Z,102069.80
2018-02-23T13:26:47.862Z,102074.58
2018-02-23T13:29:23.053Z,102077.83
2018-02-23T13:31:58.583Z,102065.70
2018-02-23T13:34:32.789Z,102071.69
2018-02-23T13:37:08.140Z,102060.42
2018-02-23T13:39:43.039Z,102056.84
2018-02-23T13:42:17.858Z,102056.55
2018-02-23T13:44:52.935Z,102059.33
2018-02-23T13:47:27.891Z,102050.81
2018-02-23T13:50:02.774Z,102056.69
2018-02-23T13:52:37.745Z,102060.26
2018-02-23T13:55:13.020Z,102053.77
2018-02-23T13:57:48.032Z,102055.28
2018-02-23T14:00:23.451Z,102052.02
2018-02-23T14:02:58.635Z,102051.92
2018-02-23T14:05:36.130Z,102047.02
2018-02-23T14:08:11.708Z,102042.02
2018-02-23T14:10:46.168Z,102044.55
2018-02-23T14:13:21.719Z,102033.37
2018-02-23T14:15:56.851Z,102035.67
2018-02-23T14:18:32.164Z,102046.82
2018-02-23T14:21:08.291Z,102042.00
2018-02-23T14:23:43.704Z,102040.77
2018-02-23T14:26:19.093Z,102052.08
2018-02-23T14:28:54.762Z,102065.89
2018-02-23T14:31:29.420Z,102054.97
2018-02-23T14:34:04.873Z,102047.80
2018-02-23T14:36:39.908Z,102050.97
2018-02-23T14:39:15.055Z,102045.90
2018-02-23T14:41:49.400Z,102053.05
2018-02-23T14:44:24.275Z,102051.64
2018-02-23T14:46:58.902Z,102042.06
2018-02-23T14:49:33.912Z,102038.26
2018-02-23T14:52:08.903Z,102038.53
2018-02-23T14:54:43.239Z,102041.83
2018-02-23T14:57:18.375Z,102029.00
2018-02-23T14:59:53.381Z,102031.55
2018-02-23T15:02:28.435Z,102026.01
2018-02-23T15:05:03.995Z,102024.38
2018-02-23T15:07:38.903Z,102021.18
2018-02-23T15:10:14.231Z,102020.91
2018-02-23T15:12:49.087Z,102032.03
2018-02-23T15:15:23.919Z,102028.88
2018-02-23T15:17:59.254Z,102015.22
2018-02-23T15:20:33.699Z,102016.80
2018-02-23T15:23:09.145Z,102023.75
2018-02-23T15:25:43.296Z,102019.00
2018-02-23T15:28:18.014Z,102019.61
2018-02-23T15:31:03.580Z,102023.91
2018-02-23T15:33:39.139Z,102020.08
2018-02-23T15:36:13.423Z,102023.18
2018-02-23T15:38:49.033Z,102020.49
2018-02-23T15:41:24.558Z,102020.20
2018-02-23T15:43:59.076Z,102017.51
2018-02-23T15:46:33.723Z,102021.66
2018-02-23T15:49:15.351Z,102020.62
2018-02-23T15:51:53.327Z,102017.47
2018-02-23T15:54:28.346Z,102022.89
2018-02-23T15:57:03.476Z,102027.05
2018-02-23T15:59:37.976Z,102023.75
2018-02-23T16:02:13.195Z,102028.08
2018-02-23T16:04:48.235Z,102037.41
2018-02-23T16:07:22.484Z,102032.06
2018-02-23T16:09:58.312Z,102030.59
2018-02-23T16:12:33.144Z,102028.53
2018-02-23T16:15:08.539Z,102028.33
2018-02-23T16:17:44.187Z,102028.03
2018-02-23T16:20:19.653Z,102032.36
2018-02-23T16:22:54.375Z,102031.66
2018-02-23T16:25:29.447Z,102035.30
2018-02-23T16:28:04.420Z,102032.22
2018-02-23T16:30:38.608Z,102035.89
2018-02-23T16:33:13.792Z,102036.69
2018-02-23T16:35:49.240Z,102039.09
2018-02-23T16:38:24.219Z,102042.23
2018-02-23T16:40:58.555Z,102046.52
2018-02-23T16:43:33.665Z,102043.44
2018-02-23T16:46:08.707Z,102046.20
2018-02-23T16:48:43.345Z,102037.02
2018-02-23T16:51:18.567Z,102036.81
2018-02-23T16:53:53.507Z,102037.05
2018-02-23T16:56:28.288Z,102040.89
2018-02-23T16:59:03.639Z,102040.71
2018-02-23T17:01:38.515Z,102043.92
2018-02-23T17:04:13.254Z,102041.38
2018-02-23T17:06:48.315Z,102042.91
2018-02-23T17:09:23.295Z,102042.13
2018-02-23T17:11:58.295Z,102041.11
2018-02-23T17:14:33.351Z,102048.67
2018-02-23T17:17:08.676Z,102049.63
2018-02-23T17:19:43.563Z,102044.45
2018-02-23T17:22:18.658Z,102050.11
2018-02-23T17:24:53.332Z,102048.84
2018-02-23T17:27:27.867Z,102052.34
2018-02-23T17:30:03.003Z,102059.48
2018-02-23T17:32:37.682Z,102059.64
2018-02-23T17:35:12.248Z,102058.27
2018-02-23T17:37:47.275Z,102059.17
2018-02-23T17:40:22.663Z,102057.81
2018-02-23T17:42:57.755Z,102066.62
2018-02-23T17:45:33.205Z,102062.33
2018-02-23T17:48:08.615Z,102068.38
2018-02-23T17:50:43.383Z,102064.34
2018-02-23T17:53:18.946Z,102062.97
2018-02-23T17:55:53.505Z,102065.20
2018-02-23T17:58:28.378Z,102061.93
2018-02-23T18:01:02.955Z,102068.05
2018-02-23T18:03:37.702Z,102065.73
2018-02-23T18:06:13.330Z,102056.13
2018-02-23T18:08:47.787Z,102060.51
2018-02-23T18:11:23.475Z,102055.11
2018-02-23T18:13:58.624Z,102052.62
2018-02-23T18:16:33.259Z,102060.96
2018-02-23T18:19:08.784Z,102063.79
2018-02-23T18:21:43.734Z,102064.34
2018-02-23T18:24:18.516Z,102064.70
2018-02-23T18:26:53.075Z,102069.59
2018-02-23T18:29:28.592Z,102074.06
2018-02-23T18:32:03.499Z,102066.12
2018-02-23T18:34:38.438Z,102076.69
2018-02-23T18:37:13.655Z,102077.86
2018-02-23T18:39:48.408Z,102077.13
2018-02-23T18:42:22.889Z,102075.30
2018-02-23T18:44:58.579Z,102081.67
2018-02-23T18:47:34.317Z,102082.66
2018-02-23T18:50:09.083Z,102093.82
2018-02-23T18:52:44.120Z,102099.68
2018-02-23T18:55:19.323Z,102092.79
2018-02-23T18:57:54.595Z,102091.48
2018-02-23T19:00:29.715Z,102098.45
2018-02-23T19:03:04.724Z,102093.17
2018-02-23T19:05:39.277Z,102098.88
2018-02-23T19:08:15.955Z,102083.31
2018-02-23T19:10:51.019Z,102093.89
2018-02-23T19:13:25.765Z,102098.42
2018-02-23T19:16:00.361Z,102098.63
2018-02-23T19:18:35.555Z,102108.33
2018-02-23T19:21:10.009Z,102113.73
2018-02-23T19:23:45.396Z,102112.88
2018-02-23T19:26:19.938Z,102122.56
2018-02-23T19:28:54.613Z,102123.91
2018-02-23T19:31:29.700Z,102119.81
2018-02-23T19:34:04.698Z,102133.84
2018-02-23T19:36:40.038Z,102138.11
2018-02-23T19:39:15.221Z,102146.91
2018-02-23T19:41:49.822Z,102135.84
2018-02-23T19:44:24.751Z,102147.44
2018-02-23T19:46:59.744Z,102154.55
2018-02-23T19:49:34.673Z,102152.45
2018-02-23T19:52:09.911Z,102160.01
2018-02-23T19:54:44.895Z,102163.52
2018-02-23T19:57:19.616Z,102164.79
2018-02-23T19:59:54.708Z,102163.38
2018-02-23T20:02:29.703Z,102168.73
2018-02-23T20:05:04.377Z,102176.19
2018-02-23T20:07:39.815Z,102184.03
2018-02-23T20:10:15.152Z,102182.84
2018-02-23T20:12:49.712Z,102180.13
2018-02-23T20:15:25.249Z,102179.28
2018-02-23T20:17:59.915Z,102181.93
2018-02-23T20:20:34.788Z,102173.20
2018-02-23T20:23:10.024Z,102169.73
2018-02-23T20:25:45.092Z,102163.53
2018-02-23T20:28:20.055Z,102171.52
2018-02-23T20:30:54.716Z,102172.16
2018-02-23T20:33:29.691Z,102171.27
2018-02-23T20:36:04.774Z,102170.50
2018-02-23T20:38:40.003Z,102172.67
2018-02-23T20:41:14.867Z,102168.31
2018-02-23T20:43:49.778Z,102173.70
2018-02-23T20:46:24.143Z,102172.47
2018-02-23T20:48:59.171Z,102182.98
2018-02-23T20:51:34.223Z,102183.31
2018-02-23T20:54:09.274Z,102183.66
2018-02-23T20:56:43.819Z,102189.31
2018-02-23T20:59:18.411Z,102187.60
2018-02-23T21:01:52.868Z,102190.38
2018-02-23T21:04:28.500Z,102186.41
2018-02-23T21:07:03.044Z,102184.23
2018-02-23T21:09:37.362Z,102187.66
2018-02-23T21:12:12.331Z,102186.09
2018-02-23T21:14:46.874Z,102181.37
2018-02-23T21:17:22.370Z,102180.53
2018-02-23T21:19:57.903Z,102182.20
2018-02-23T21:22:32.586Z,102179.05
2018-02-23T21:25:08.205Z,102180.65
2018-02-23T21:27:43.436Z,102182.80
2018-02-23T21:30:18.624Z,102181.59
2018-02-23T21:32:53.131Z,102189.06
2018-02-23T21:35:27.847Z,102190.84
2018-02-23T21:38:02.964Z,102183.77
2018-02-23T21:40:37.692Z,102186.11
2018-02-23T21:43:13.077Z,102185.67
2018-02-23T21:45:48.102Z,102173.33
2018-02-23T21:48:23.237Z,102182.64
2018-02-23T21:50:59.253Z,102186.24
2018-02-23T21:53:33.571Z,102193.28
2018-02-23T21:56:09.294Z,102202.20
2018-02-23T21:58:43.707Z,102200.50
2018-02-23T22:01:19.132Z,102211.47
2018-02-23T22:03:54.096Z,102209.73
2018-02-23T22:06:29.303Z,102213.31
2018-02-23T22:09:03.495Z,102213.35
2018-02-23T22:11:38.682Z,102213.77
2018-02-23T22:14:13.951Z,102221.80
2018-02-23T22:16:48.974Z,102219.20
2018-02-23T22:19:23.801Z,102213.05
2018-02-23T22:21:59.101Z,102215.66
2018-02-23T22:24:34.385Z,102219.13
2018-02-23T22:27:09.824Z,102225.25
2018-02-23T22:29:44.907Z,102216.53
2018-02-23T22:32:20.319Z,102218.28
2018-02-23T22:34:55.519Z,102219.61
2018-02-23T22:37:30.081Z,102230.20
2018-02-23T22:40:05.068Z,102226.24
2018-02-23T22:42:40.371Z,102228.88
2018-02-23T22:45:15.071Z,102232.05
2018-02-23T22:47:50.253Z,102232.91
2018-02-23T22:50:25.234Z,102236.90
2018-02-23T22:53:00.491Z,102242.13
2018-02-23T22:55:36.119Z,102241.72
2018-02-23T22:58:11.320Z,102243.48
2018-02-23T23:00:46.603Z,102242.09
2018-02-23T23:03:22.187Z,102245.62
2018-02-23T23:05:57.241Z,102249.64
2018-02-23T23:08:32.530Z,102243.89
2018-02-23T23:11:07.562Z,102244.33
2018-02-23T23:13:42.140Z,102239.03
2018-02-23T23:16:17.324Z,102242.55
2018-02-23T23:18:52.367Z,102243.00
2018-02-23T23:21:27.118Z,102247.47
2018-02-23T23:24:02.069Z,102248.34
2018-02-23T23:26:37.179Z,102245.23
2018-02-23T23:29:12.375Z,102247.89
2018-02-23T23:31:47.924Z,102250.55
2018-02-23T23:34:23.260Z,102257.18
2018-02-23T23:36:58.061Z,102251.50
2018-02-23T23:39:33.123Z,102257.23
2018-02-23T23:42:09.409Z,102258.54
2018-02-23T23:44:44.648Z,102255.46
2018-02-23T23:47:19.452Z,102250.61
2018-02-23T23:49:54.708Z,102255.42
2018-02-23T23:52:29.475Z,102254.96
2018-02-23T23:55:05.043Z,102259.86
2018-02-23T23:57:39.431Z,102263.81
